Orangeburg, SC (29117)

6:34 PM EDT on June 03, 2015 (GMT -0400)
OC Tech | | Change Station
CLOSE
Current Station
Personal Weather Station
Location: Orangeburg, SC
Elevation: 292 ft
Nearby Weather Stations

Elev 292 ft 33.54 °N, 80.83 °W | Updated 4 minutes ago

Clear
Clear
73.4 °F
Feels Like 72 °F
N
1.0
Wind Variable Wind from NE
Gusts 11.0 mph

Today
High -- | Low -- °F
--% Chance of Precip.
Yesterday
High -- | Low -- °F
Precip. -- in
6:14 AM 8:29 PM
Full, 98% visible
Pressure 29.96 in
Visibility 10.0 miles
Clouds Clear
Heat Index 72 °F
Dew Point 69 °F
Humidity 86%
Rainfall 0.30 in
Snow Depth Not available.
UV 3 out of 12
Pollen 4.70 out of 12
Air Quality Not available.
Flu Activity Local Activity
METAR KOGB 032153Z AUTO 06006KT 10SM CLR 24/19 A2996 RMK AO2 SLP144 T02390189

More Conditions Fewer Conditions

Pressure 29.96 in
Visibility 10.0 miles
Clouds Clear
Heat Index 72 °F
Dew Point 69 °F
Humidity 86%
Rainfall 0.30 in
Snow Depth Not available.
UV 3 out of 12
Pollen 4.70 out of 12
Air Quality Not available.
Flu Activity Local Activity
METAR KOGB 032153Z AUTO 06006KT 10SM CLR 24/19 A2996 RMK AO2 SLP144 T02390189

More Conditions Fewer Conditions

10-Day Weather Forecast

Almanac

Astronomy

Jun. 03, 2015 Rise Set
Actual Time
Civil Twilight
Nautical Twilight
Astronomical Twilight
Moon
Length of Visible Light
Length of Day
Tomorrow will be .
, % of the Moon is Illuminated

Today's Extremes

State Highs State Lows

Community

WunderPhotos

Upload Photos

1,826,295 photos uploaded!

WunderBlogs® & News

Nearby

Air Quality

  Air Quality AQ Index Pollutant
Not available.

Snow Depth

Station Depth Elevation

Earthquake Activity

City Distance Mag. Time & Date
Minimum magnitude displayed is 2.5.

Coastal Water Temperatures

Place Temperature

Stations

Nearby Weather Stations

Station Location Temp. Windchill Dew Point Humidity Wind Precip. Elev Updated Type